sensor_id;sensor_type;location;lat;lon;timestamp;pressure;altitude;pressure_sealevel;temperature;humidity
47753;BME280;2038;51.728;6.674;2022-12-18T00:01:27;102184.44;;;-5.41;100.00
47753;BME280;2038;51.728;6.674;2022-12-18T00:03:56;102189.66;;;-5.39;100.00
47753;BME280;2038;51.728;6.674;2022-12-18T00:06:23;102184.91;;;-5.32;100.00
47753;BME280;2038;51.728;6.674;2022-12-18T00:08:50;102188.31;;;-5.32;100.00
47753;BME280;2038;51.728;6.674;2022-12-18T00:11:19;102187.19;;;-5.34;100.00
47753;BME280;2038;51.728;6.674;2022-12-18T00:13:47;102181.78;;;-5.03;100.00
47753;BME280;2038;51.728;6.674;2022-12-18T00:16:16;102185.19;;;-5.14;100.00
47753;BME280;2038;51.728;6.674;2022-12-18T00:18:49;102189.66;;;-5.17;100.00
47753;BME280;2038;51.728;6.674;2022-12-18T00:21:17;102185.13;;;-5.25;100.00
47753;BME280;2038;51.728;6.674;2022-12-18T00:23:45;102186.75;;;-5.26;100.00
47753;BME280;2038;51.728;6.674;2022-12-18T00:26:30;102198.03;;;-5.28;100.00
47753;BME280;2038;51.728;6.674;2022-12-18T00:29:10;102191.47;;;-5.27;100.00
47753;BME280;2038;51.728;6.674;2022-12-18T00:31:40;102182.88;;;-5.35;100.00
47753;BME280;2038;51.728;6.674;2022-12-18T00:34:09;102191.03;;;-5.30;100.00
47753;BME280;2038;51.728;6.674;2022-12-18T00:36:36;102197.56;;;-5.25;100.00
47753;BME280;2038;51.728;6.674;2022-12-18T00:39:05;102188.34;;;-5.15;100.00
47753;BME280;2038;51.728;6.674;2022-12-18T00:41:31;102192.84;;;-5.12;100.00
47753;BME280;2038;51.728;6.674;2022-12-18T00:44:18;102190.81;;;-5.15;100.00
47753;BME280;2038;51.728;6.674;2022-12-18T00:46:45;102178.38;;;-5.21;100.00
47753;BME280;2038;51.728;6.674;2022-12-18T00:49:17;102177.69;;;-5.25;100.00
47753;BME280;2038;51.728;6.674;2022-12-18T00:51:44;102181.56;;;-5.22;100.00
47753;BME280;2038;51.728;6.674;2022-12-18T00:54:11;102177.94;;;-5.18;100.00
47753;BME280;2038;51.728;6.674;2022-12-18T00:56:38;102177.25;;;-5.17;100.00
47753;BME280;2038;51.728;6.674;2022-12-18T00:59:05;102174.75;;;-5.17;100.00
47753;BME280;2038;51.728;6.674;2022-12-18T01:01:32;102175.91;;;-5.15;100.00
47753;BME280;2038;51.728;6.674;2022-12-18T01:03:59;102177.03;;;-5.30;100.00
47753;BME280;2038;51.728;6.674;2022-12-18T01:06:27;102185.78;;;-5.37;100.00
47753;BME280;2038;51.728;6.674;2022-12-18T01:08:53;102185.31;;;-5.51;100.00
47753;BME280;2038;51.728;6.674;2022-12-18T01:11:21;102181.47;;;-5.49;100.00
47753;BME280;2038;51.728;6.674;2022-12-18T01:13:48;102181.25;;;-5.45;100.00
47753;BME280;2038;51.728;6.674;2022-12-18T01:16:16;102179.25;;;-5.42;100.00
47753;BME280;2038;51.728;6.674;2022-12-18T01:18:43;102179.94;;;-5.38;100.00
47753;BME280;2038;51.728;6.674;2022-12-18T01:21:13;102186.50;;;-5.38;100.00
47753;BME280;2038;51.728;6.674;2022-12-18T01:23:45;102198.63;;;-5.45;100.00
47753;BME280;2038;51.728;6.674;2022-12-18T01:26:15;102200.44;;;-5.55;100.00
47753;BME280;2038;51.728;6.674;2022-12-18T01:28:43;102200.19;;;-5.62;100.00
47753;BME280;2038;51.728;6.674;2022-12-18T01:33:40;102189.50;;;-5.84;100.00
47753;BME280;2038;51.728;6.674;2022-12-18T01:36:08;102191.56;;;-5.87;100.00
47753;BME280;2038;51.728;6.674;2022-12-18T01:38:40;102195.81;;;-5.91;100.00
47753;BME280;2038;51.728;6.674;2022-12-18T01:41:08;102184.28;;;-5.96;100.00
47753;BME280;2038;51.728;6.674;2022-12-18T01:43:50;102185.44;;;-5.94;100.00
47753;BME280;2038;51.728;6.674;2022-12-18T01:46:18;102179.09;;;-5.92;100.00
47753;BME280;2038;51.728;6.674;2022-12-18T01:48:55;102171.44;;;-5.88;100.00
47753;BME280;2038;51.728;6.674;2022-12-18T01:51:27;102175.31;;;-5.90;100.00
47753;BME280;2038;51.728;6.674;2022-12-18T01:53:55;102184.31;;;-5.91;100.00
47753;BME280;2038;51.728;6.674;2022-12-18T01:56:23;102187.91;;;-5.89;100.00
47753;BME280;2038;51.728;6.674;2022-12-18T01:59:03;102187.00;;;-5.89;100.00
47753;BME280;2038;51.728;6.674;2022-12-18T02:01:33;102185.00;;;-5.86;100.00
47753;BME280;2038;51.728;6.674;2022-12-18T02:07:14;102183.63;;;-5.84;100.00
47753;BME280;2038;51.728;6.674;2022-12-18T02:10:00;102186.59;;;-5.87;100.00
47753;BME280;2038;51.728;6.674;2022-12-18T02:13:25;102189.03;;;-5.81;100.00
47753;BME280;2038;51.728;6.674;2022-12-18T02:18:50;102183.19;;;-5.87;100.00
47753;BME280;2038;51.728;6.674;2022-12-18T02:24:58;102187.50;;;-5.86;100.00
47753;BME280;2038;51.728;6.674;2022-12-18T02:27:28;102181.13;;;-5.84;100.00
47753;BME280;2038;51.728;6.674;2022-12-18T02:30:00;102194.00;;;-5.81;100.00
47753;BME280;2038;51.728;6.674;2022-12-18T02:32:34;102188.38;;;-5.80;100.00
47753;BME280;2038;51.728;6.674;2022-12-18T02:35:05;102177.78;;;-5.74;100.00
47753;BME280;2038;51.728;6.674;2022-12-18T02:37:35;102170.78;;;-5.76;100.00
47753;BME280;2038;51.728;6.674;2022-12-18T02:40:05;102171.94;;;-5.74;100.00
47753;BME280;2038;51.728;6.674;2022-12-18T02:42:33;102172.59;;;-5.75;100.00
47753;BME280;2038;51.728;6.674;2022-12-18T02:45:00;102171.25;;;-5.73;100.00
47753;BME280;2038;51.728;6.674;2022-12-18T02:47:31;102171.03;;;-5.69;100.00
47753;BME280;2038;51.728;6.674;2022-12-18T02:53:24;102171.25;;;-5.79;100.00
47753;BME280;2038;51.728;6.674;2022-12-18T02:56:19;102177.75;;;-5.85;100.00
47753;BME280;2038;51.728;6.674;2022-12-18T03:01:39;102184.06;;;-5.92;100.00
47753;BME280;2038;51.728;6.674;2022-12-18T03:04:25;102184.78;;;-5.88;100.00
47753;BME280;2038;51.728;6.674;2022-12-18T03:06:58;102173.72;;;-5.90;100.00
47753;BME280;2038;51.728;6.674;2022-12-18T03:09:36;102173.28;;;-5.87;100.00
47753;BME280;2038;51.728;6.674;2022-12-18T03:12:19;102160.41;;;-5.90;100.00
47753;BME280;2038;51.728;6.674;2022-12-18T03:15:55;102146.88;;;-5.87;100.00
47753;BME280;2038;51.728;6.674;2022-12-18T03:18:04;102147.53;;;-5.88;100.00
47753;BME280;2038;51.728;6.674;2022-12-18T03:20:35;102149.31;;;-5.81;100.00
47753;BME280;2038;51.728;6.674;2022-12-18T03:23:11;102160.16;;;-5.92;100.00
47753;BME280;2038;51.728;6.674;2022-12-18T03:25:44;102152.94;;;-5.96;100.00
47753;BME280;2038;51.728;6.674;2022-12-18T03:28:20;102157.88;;;-5.96;100.00
47753;BME280;2038;51.728;6.674;2022-12-18T03:30:49;102151.56;;;-5.99;100.00
47753;BME280;2038;51.728;6.674;2022-12-18T03:33:45;102151.81;;;-5.92;100.00
47753;BME280;2038;51.728;6.674;2022-12-18T03:36:17;102156.78;;;-5.92;100.00
47753;BME280;2038;51.728;6.674;2022-12-18T03:38:44;102154.06;;;-5.88;100.00
47753;BME280;2038;51.728;6.674;2022-12-18T03:43:58;102145.97;;;-5.87;100.00
47753;BME280;2038;51.728;6.674;2022-12-18T03:46:55;102146.84;;;-5.81;100.00
47753;BME280;2038;51.728;6.674;2022-12-18T03:49:47;102147.53;;;-5.82;100.00
47753;BME280;2038;51.728;6.674;2022-12-18T03:52:25;102141.47;;;-5.79;100.00
47753;BME280;2038;51.728;6.674;2022-12-18T03:54:57;102137.84;;;-5.86;100.00
47753;BME280;2038;51.728;6.674;2022-12-18T03:57:28;102136.69;;;-5.83;100.00
47753;BME280;2038;51.728;6.674;2022-12-18T04:00:03;102145.72;;;-5.89;100.00
47753;BME280;2038;51.728;6.674;2022-12-18T04:02:32;102143.94;;;-5.90;100.00
47753;BME280;2038;51.728;6.674;2022-12-18T04:05:04;102141.88;;;-5.92;100.00
47753;BME280;2038;51.728;6.674;2022-12-18T04:07:32;102138.69;;;-5.97;100.00
47753;BME280;2038;51.728;6.674;2022-12-18T04:10:00;102144.56;;;-6.02;100.00
47753;BME280;2038;51.728;6.674;2022-12-18T04:12:29;102136.22;;;-5.97;100.00
47753;BME280;2038;51.728;6.674;2022-12-18T04:14:56;102143.69;;;-5.91;100.00
47753;BME280;2038;51.728;6.674;2022-12-18T04:17:22;102137.38;;;-5.89;100.00
47753;BME280;2038;51.728;6.674;2022-12-18T04:19:48;102139.66;;;-5.91;100.00
47753;BME280;2038;51.728;6.674;2022-12-18T04:22:15;102141.47;;;-5.90;100.00
47753;BME280;2038;51.728;6.674;2022-12-18T04:24:41;102133.97;;;-5.84;100.00
47753;BME280;2038;51.728;6.674;2022-12-18T04:27:07;102131.53;;;-5.90;100.00
47753;BME280;2038;51.728;6.674;2022-12-18T04:29:33;102130.63;;;-5.90;100.00
47753;BME280;2038;51.728;6.674;2022-12-18T04:32:00;102130.38;;;-5.92;100.00
47753;BME280;2038;51.728;6.674;2022-12-18T04:34:26;102126.09;;;-5.98;100.00
47753;BME280;2038;51.728;6.674;2022-12-18T04:36:52;102115.25;;;-5.93;100.00
47753;BME280;2038;51.728;6.674;2022-12-18T04:39:18;102125.63;;;-5.96;100.00
47753;BME280;2038;51.728;6.674;2022-12-18T04:41:45;102126.50;;;-6.01;100.00
47753;BME280;2038;51.728;6.674;2022-12-18T04:44:11;102123.81;;;-6.02;100.00
47753;BME280;2038;51.728;6.674;2022-12-18T04:46:37;102121.53;;;-6.06;100.00
47753;BME280;2038;51.728;6.674;2022-12-18T04:49:03;102125.34;;;-6.08;100.00
47753;BME280;2038;51.728;6.674;2022-12-18T04:51:30;102118.34;;;-6.11;100.00
47753;BME280;2038;51.728;6.674;2022-12-18T04:53:56;102119.03;;;-6.12;100.00
47753;BME280;2038;51.728;6.674;2022-12-18T04:56:22;102108.44;;;-6.05;100.00
47753;BME280;2038;51.728;6.674;2022-12-18T04:58:48;102117.00;;;-6.09;100.00
47753;BME280;2038;51.728;6.674;2022-12-18T05:01:16;102114.78;;;-6.02;100.00
47753;BME280;2038;51.728;6.674;2022-12-18T05:03:43;102114.38;;;-5.94;100.00
47753;BME280;2038;51.728;6.674;2022-12-18T05:06:10;102114.81;;;-5.91;100.00
47753;BME280;2038;51.728;6.674;2022-12-18T05:08:37;102107.59;;;-5.95;100.00
47753;BME280;2038;51.728;6.674;2022-12-18T05:11:11;102104.00;;;-5.91;100.00
47753;BME280;2038;51.728;6.674;2022-12-18T05:13:42;102112.56;;;-5.73;100.00
47753;BME280;2038;51.728;6.674;2022-12-18T05:16:09;102109.88;;;-5.74;100.00
47753;BME280;2038;51.728;6.674;2022-12-18T05:18:37;102099.50;;;-5.72;100.00
47753;BME280;2038;51.728;6.674;2022-12-18T05:21:04;102111.66;;;-5.73;100.00
47753;BME280;2038;51.728;6.674;2022-12-18T05:23:31;102103.78;;;-5.71;100.00
47753;BME280;2038;51.728;6.674;2022-12-18T05:26:03;102110.31;;;-5.66;100.00
47753;BME280;2038;51.728;6.674;2022-12-18T05:28:32;102110.13;;;-5.67;100.00
47753;BME280;2038;51.728;6.674;2022-12-18T05:31:00;102109.00;;;-5.63;100.00
47753;BME280;2038;51.728;6.674;2022-12-18T05:33:30;102112.81;;;-5.66;100.00
47753;BME280;2038;51.728;6.674;2022-12-18T05:36:03;102119.63;;;-5.59;100.00
47753;BME280;2038;51.728;6.674;2022-12-18T05:38:33;102128.44;;;-5.50;100.00
47753;BME280;2038;51.728;6.674;2022-12-18T05:41:00;102129.56;;;-5.48;100.00
47753;BME280;2038;51.728;6.674;2022-12-18T05:43:27;102139.47;;;-5.53;100.00
47753;BME280;2038;51.728;6.674;2022-12-18T05:45:54;102137.22;;;-5.52;100.00
47753;BME280;2038;51.728;6.674;2022-12-18T05:48:22;102142.16;;;-5.57;100.00
47753;BME280;2038;51.728;6.674;2022-12-18T05:50:49;102146.94;;;-5.59;100.00
47753;BME280;2038;51.728;6.674;2022-12-18T05:53:18;102144.44;;;-5.59;100.00
47753;BME280;2038;51.728;6.674;2022-12-18T05:55:46;102152.09;;;-5.63;100.00
47753;BME280;2038;51.728;6.674;2022-12-18T05:58:14;102153.22;;;-5.61;100.00
47753;BME280;2038;51.728;6.674;2022-12-18T06:00:44;102162.72;;;-5.53;100.00
47753;BME280;2038;51.728;6.674;2022-12-18T06:03:12;102159.78;;;-5.56;100.00
47753;BME280;2038;51.728;6.674;2022-12-18T06:05:44;102160.47;;;-5.57;100.00
47753;BME280;2038;51.728;6.674;2022-12-18T06:08:12;102166.81;;;-5.48;100.00
47753;BME280;2038;51.728;6.674;2022-12-18T06:10:40;102166.56;;;-5.55;100.00
47753;BME280;2038;51.728;6.674;2022-12-18T06:13:07;102163.88;;;-5.45;100.00
47753;BME280;2038;51.728;6.674;2022-12-18T06:15:36;102170.19;;;-5.47;100.00
47753;BME280;2038;51.728;6.674;2022-12-18T06:18:03;102160.25;;;-5.53;100.00
47753;BME280;2038;51.728;6.674;2022-12-18T06:20:32;102158.91;;;-5.51;100.00
47753;BME280;2038;51.728;6.674;2022-12-18T06:22:59;102163.41;;;-5.59;100.00
47753;BME280;2038;51.728;6.674;2022-12-18T06:25:26;102156.19;;;-5.52;100.00
47753;BME280;2038;51.728;6.674;2022-12-18T06:27:52;102152.34;;;-5.56;100.00
47753;BME280;2038;51.728;6.674;2022-12-18T06:30:18;102150.53;;;-5.62;100.00
47753;BME280;2038;51.728;6.674;2022-12-18T06:32:45;102142.19;;;-5.63;100.00
47753;BME280;2038;51.728;6.674;2022-12-18T06:35:11;102152.13;;;-5.52;100.00
47753;BME280;2038;51.728;6.674;2022-12-18T06:37:37;102150.09;;;-5.54;100.00
47753;BME280;2038;51.728;6.674;2022-12-18T06:40:04;102143.56;;;-5.48;100.00
47753;BME280;2038;51.728;6.674;2022-12-18T06:42:31;102135.69;;;-5.46;100.00
47753;BME280;2038;51.728;6.674;2022-12-18T06:44:57;102132.72;;;-5.43;100.00
47753;BME280;2038;51.728;6.674;2022-12-18T06:47:24;102122.34;;;-5.41;100.00
47753;BME280;2038;51.728;6.674;2022-12-18T06:49:50;102124.41;;;-5.38;100.00
47753;BME280;2038;51.728;6.674;2022-12-18T06:52:16;102119.88;;;-5.35;100.00
47753;BME280;2038;51.728;6.674;2022-12-18T06:54:42;102112.66;;;-5.39;100.00
47753;BME280;2038;51.728;6.674;2022-12-18T06:57:08;102107.91;;;-5.38;100.00
47753;BME280;2038;51.728;6.674;2022-12-18T06:59:35;102110.41;;;-5.38;100.00
47753;BME280;2038;51.728;6.674;2022-12-18T07:02:01;102107.47;;;-5.35;100.00
47753;BME280;2038;51.728;6.674;2022-12-18T07:04:31;102107.00;;;-5.33;100.00
47753;BME280;2038;51.728;6.674;2022-12-18T07:06:57;102106.56;;;-5.30;100.00
47753;BME280;2038;51.728;6.674;2022-12-18T07:09:24;102101.34;;;-5.21;100.00
47753;BME280;2038;51.728;6.674;2022-12-18T07:11:50;102103.63;;;-5.22;100.00
47753;BME280;2038;51.728;6.674;2022-12-18T07:14:16;102108.13;;;-5.25;100.00
47753;BME280;2038;51.728;6.674;2022-12-18T07:16:42;102112.22;;;-5.26;100.00
47753;BME280;2038;51.728;6.674;2022-12-18T07:19:09;102109.03;;;-5.36;100.00
47753;BME280;2038;51.728;6.674;2022-12-18T07:21:35;102107.91;;;-5.32;100.00
47753;BME280;2038;51.728;6.674;2022-12-18T07:24:01;102109.50;;;-5.38;100.00
47753;BME280;2038;51.728;6.674;2022-12-18T07:26:27;102107.44;;;-5.41;100.00
47753;BME280;2038;51.728;6.674;2022-12-18T07:28:57;102100.88;;;-5.40;100.00
47753;BME280;2038;51.728;6.674;2022-12-18T07:31:24;102097.50;;;-5.41;100.00
47753;BME280;2038;51.728;6.674;2022-12-18T07:33:52;102091.41;;;-5.48;100.00
47753;BME280;2038;51.728;6.674;2022-12-18T07:36:19;102097.75;;;-5.39;100.00
47753;BME280;2038;51.728;6.674;2022-12-18T07:38:49;102099.56;;;-5.27;100.00
47753;BME280;2038;51.728;6.674;2022-12-18T07:41:16;102101.38;;;-5.26;100.00
47753;BME280;2038;51.728;6.674;2022-12-18T07:43:42;102102.28;;;-5.26;100.00
47753;BME280;2038;51.728;6.674;2022-12-18T07:46:10;102102.28;;;-5.26;100.00
47753;BME280;2038;51.728;6.674;2022-12-18T07:48:37;102107.91;;;-5.21;100.00
47753;BME280;2038;51.728;6.674;2022-12-18T07:51:05;102100.47;;;-5.27;100.00
47753;BME280;2038;51.728;6.674;2022-12-18T07:53:33;102096.16;;;-5.16;100.00
47753;BME280;2038;51.728;6.674;2022-12-18T07:56:05;102108.81;;;-5.04;100.00
47753;BME280;2038;51.728;6.674;2022-12-18T07:58:34;102113.13;;;-5.14;100.00
47753;BME280;2038;51.728;6.674;2022-12-18T08:01:05;102110.63;;;-5.03;100.00
47753;BME280;2038;51.728;6.674;2022-12-18T08:03:33;102114.22;;;-5.01;100.00
47753;BME280;2038;51.728;6.674;2022-12-18T08:06:01;102109.47;;;-5.05;100.00
47753;BME280;2038;51.728;6.674;2022-12-18T08:08:28;102097.75;;;-5.06;100.00
47753;BME280;2038;51.728;6.674;2022-12-18T08:10:55;102099.56;;;-4.99;100.00
47753;BME280;2038;51.728;6.674;2022-12-18T08:13:22;102090.72;;;-4.97;100.00
47753;BME280;2038;51.728;6.674;2022-12-18T08:16:00;102082.13;;;-4.88;100.00
47753;BME280;2038;51.728;6.674;2022-12-18T08:18:28;102075.13;;;-4.80;100.00
47753;BME280;2038;51.728;6.674;2022-12-18T08:20:55;102067.19;;;-4.72;100.00
47753;BME280;2038;51.728;6.674;2022-12-18T08:23:22;102068.56;;;-4.74;100.00
47753;BME280;2038;51.728;6.674;2022-12-18T08:25:48;102057.03;;;-4.79;100.00
47753;BME280;2038;51.728;6.674;2022-12-18T08:28:18;102053.84;;;-4.66;100.00
47753;BME280;2038;51.728;6.674;2022-12-18T08:30:44;102051.97;;;-4.51;100.00
47753;BME280;2038;51.728;6.674;2022-12-18T08:33:10;102044.72;;;-4.44;100.00
47753;BME280;2038;51.728;6.674;2022-12-18T08:35:37;102028.41;;;-4.36;100.00
47753;BME280;2038;51.728;6.674;2022-12-18T08:38:03;102032.22;;;-4.33;100.00
47753;BME280;2038;51.728;6.674;2022-12-18T08:40:29;102039.66;;;-4.27;100.00
47753;BME280;2038;51.728;6.674;2022-12-18T08:42:56;102053.44;;;-4.18;100.00
47753;BME280;2038;51.728;6.674;2022-12-18T08:45:40;102056.53;;;-4.08;100.00
47753;BME280;2038;51.728;6.674;2022-12-18T08:48:09;102055.13;;;-4.00;100.00
47753;BME280;2038;51.728;6.674;2022-12-18T08:50:35;102058.03;;;-3.86;100.00
47753;BME280;2038;51.728;6.674;2022-12-18T08:53:02;102046.94;;;-3.88;100.00
47753;BME280;2038;51.728;6.674;2022-12-18T08:55:28;102046.91;;;-3.83;100.00
47753;BME280;2038;51.728;6.674;2022-12-18T08:57:54;102036.19;;;-3.70;100.00
47753;BME280;2038;51.728;6.674;2022-12-18T09:00:21;102037.50;;;-3.67;100.00
47753;BME280;2038;51.728;6.674;2022-12-18T09:02:47;102042.16;;;-3.52;100.00
47753;BME280;2038;51.728;6.674;2022-12-18T09:05:13;102036.72;;;-3.49;100.00
47753;BME280;2038;51.728;6.674;2022-12-18T09:07:40;102038.47;;;-3.43;100.00
47753;BME280;2038;51.728;6.674;2022-12-18T09:10:06;102040.22;;;-3.36;100.00
47753;BME280;2038;51.728;6.674;2022-12-18T09:12:33;102042.91;;;-3.29;100.00
47753;BME280;2038;51.728;6.674;2022-12-18T09:14:59;102051.84;;;-3.18;100.00
47753;BME280;2038;51.728;6.674;2022-12-18T09:17:25;102046.78;;;-3.13;100.00
47753;BME280;2038;51.728;6.674;2022-12-18T09:19:52;102045.41;;;-3.05;100.00
47753;BME280;2038;51.728;6.674;2022-12-18T09:22:23;102037.84;;;-3.00;100.00
47753;BME280;2038;51.728;6.674;2022-12-18T09:24:49;102041.88;;;-2.95;100.00
47753;BME280;2038;51.728;6.674;2022-12-18T09:27:15;102047.66;;;-2.83;100.00
47753;BME280;2038;51.728;6.674;2022-12-18T09:29:41;102042.41;;;-2.79;100.00
47753;BME280;2038;51.728;6.674;2022-12-18T09:32:08;102051.63;;;-2.72;100.00
47753;BME280;2038;51.728;6.674;2022-12-18T09:34:36;102038.59;;;-2.64;100.00
47753;BME280;2038;51.728;6.674;2022-12-18T09:37:02;102040.81;;;-2.60;100.00
47753;BME280;2038;51.728;6.674;2022-12-18T09:39:29;102050.47;;;-2.51;100.00
47753;BME280;2038;51.728;6.674;2022-12-18T09:41:57;102035.88;;;-2.42;100.00
47753;BME280;2038;51.728;6.674;2022-12-18T09:44:27;102040.06;;;-2.36;100.00
47753;BME280;2038;51.728;6.674;2022-12-18T09:47:17;102042.94;;;-2.45;100.00
47753;BME280;2038;51.728;6.674;2022-12-18T09:50:05;102041.41;;;-2.32;100.00
47753;BME280;2038;51.728;6.674;2022-12-18T09:52:49;102036.88;;;-2.16;100.00
47753;BME280;2038;51.728;6.674;2022-12-18T09:55:37;102027.78;;;-2.16;100.00
47753;BME280;2038;51.728;6.674;2022-12-18T10:00:36;102001.38;;;-2.26;100.00
47753;BME280;2038;51.728;6.674;2022-12-18T10:03:13;102002.34;;;-2.13;100.00
47753;BME280;2038;51.728;6.674;2022-12-18T10:06:20;102010.66;;;-2.07;100.00
47753;BME280;2038;51.728;6.674;2022-12-18T10:11:48;101995.50;;;-1.96;100.00
47753;BME280;2038;51.728;6.674;2022-12-18T10:14:41;101994.84;;;-1.82;100.00
47753;BME280;2038;51.728;6.674;2022-12-18T10:20:41;101986.78;;;-1.74;100.00
47753;BME280;2038;51.728;6.674;2022-12-18T10:26:10;101974.41;;;-1.67;100.00
47753;BME280;2038;51.728;6.674;2022-12-18T10:28:40;101966.81;;;-1.62;100.00
47753;BME280;2038;51.728;6.674;2022-12-18T10:31:12;101972.50;;;-1.63;100.00
47753;BME280;2038;51.728;6.674;2022-12-18T10:33:42;101973.13;;;-1.58;100.00
47753;BME280;2038;51.728;6.674;2022-12-18T10:36:09;101971.31;;;-1.47;100.00
47753;BME280;2038;51.728;6.674;2022-12-18T10:38:36;101970.94;;;-1.50;100.00
47753;BME280;2038;51.728;6.674;2022-12-18T10:44:12;101959.75;;;-1.33;100.00
47753;BME280;2038;51.728;6.674;2022-12-18T10:46:42;101957.25;;;-1.33;100.00
47753;BME280;2038;51.728;6.674;2022-12-18T10:49:28;101954.31;;;-1.24;100.00
47753;BME280;2038;51.728;6.674;2022-12-18T10:52:19;101946.72;;;-1.18;100.00
47753;BME280;2038;51.728;6.674;2022-12-18T10:54:59;101936.88;;;-1.04;100.00
47753;BME280;2038;51.728;6.674;2022-12-18T10:57:39;101927.31;;;-1.01;100.00
47753;BME280;2038;51.728;6.674;2022-12-18T11:00:29;101933.78;;;-0.96;100.00
47753;BME280;2038;51.728;6.674;2022-12-18T11:02:56;101922.28;;;-0.88;100.00
47753;BME280;2038;51.728;6.674;2022-12-18T11:05:31;101922.97;;;-0.89;100.00
47753;BME280;2038;51.728;6.674;2022-12-18T11:08:00;101912.34;;;-0.81;100.00
47753;BME280;2038;51.728;6.674;2022-12-18T11:10:37;101915.22;;;-0.78;100.00
47753;BME280;2038;51.728;6.674;2022-12-18T11:13:27;101911.13;;;-0.78;100.00
47753;BME280;2038;51.728;6.674;2022-12-18T11:15:55;101914.91;;;-0.74;100.00
47753;BME280;2038;51.728;6.674;2022-12-18T11:18:34;101903.63;;;-0.78;100.00
47753;BME280;2038;51.728;6.674;2022-12-18T11:21:10;101903.22;;;-0.68;100.00
47753;BME280;2038;51.728;6.674;2022-12-18T11:23:50;101901.78;;;-0.66;100.00
47753;BME280;2038;51.728;6.674;2022-12-18T11:26:19;101896.34;;;-0.57;100.00
47753;BME280;2038;51.728;6.674;2022-12-18T11:29:07;101880.16;;;-0.46;100.00
47753;BME280;2038;51.728;6.674;2022-12-18T11:31:36;101879.22;;;-0.34;100.00
47753;BME280;2038;51.728;6.674;2022-12-18T11:34:26;101876.00;;;-0.33;100.00
47753;BME280;2038;51.728;6.674;2022-12-18T11:36:57;101884.00;;;-0.35;100.00
47753;BME280;2038;51.728;6.674;2022-12-18T11:39:53;101875.81;;;-0.34;100.00
47753;BME280;2038;51.728;6.674;2022-12-18T11:45:35;101869.53;;;-0.11;100.00
47753;BME280;2038;51.728;6.674;2022-12-18T11:50:56;101867.63;;;-0.07;100.00
47753;BME280;2038;51.728;6.674;2022-12-18T11:53:26;101862.03;;;-0.11;100.00
47753;BME280;2038;51.728;6.674;2022-12-18T11:59:21;101859.59;;;-0.04;100.00
47753;BME280;2038;51.728;6.674;2022-12-18T12:11:10;101852.38;;;0.12;100.00
47753;BME280;2038;51.728;6.674;2022-12-18T12:14:04;101850.53;;;0.04;99.72
47753;BME280;2038;51.728;6.674;2022-12-18T12:17:07;101849.28;;;0.07;100.00
47753;BME280;2038;51.728;6.674;2022-12-18T12:19:58;101842.22;;;-0.03;99.98
47753;BME280;2038;51.728;6.674;2022-12-18T12:23:13;101829.13;;;-0.07;100.00
47753;BME280;2038;51.728;6.674;2022-12-18T12:26:02;101828.31;;;-0.01;100.00
47753;BME280;2038;51.728;6.674;2022-12-18T12:28:42;101831.72;;;0.00;100.00
47753;BME280;2038;51.728;6.674;2022-12-18T12:35:05;101807.59;;;0.08;100.00
47753;BME280;2038;51.728;6.674;2022-12-18T12:40:24;101806.94;;;0.16;100.00
47753;BME280;2038;51.728;6.674;2022-12-18T12:43:45;101806.59;;;0.20;100.00
47753;BME280;2038;51.728;6.674;2022-12-18T12:48:46;101808.75;;;0.24;100.00
47753;BME280;2038;51.728;6.674;2022-12-18T12:51:35;101806.41;;;0.25;100.00
47753;BME280;2038;51.728;6.674;2022-12-18T12:54:12;101806.44;;;0.32;99.76
47753;BME280;2038;51.728;6.674;2022-12-18T13:02:32;101795.91;;;0.28;99.41
47753;BME280;2038;51.728;6.674;2022-12-18T13:10:39;101788.44;;;0.49;99.38
47753;BME280;2038;51.728;6.674;2022-12-18T13:13:12;101785.56;;;0.46;99.21
47753;BME280;2038;51.728;6.674;2022-12-18T13:16:05;101778.81;;;0.52;99.00
47753;BME280;2038;51.728;6.674;2022-12-18T13:18:33;101777.50;;;0.41;99.71
47753;BME280;2038;51.728;6.674;2022-12-18T13:23:36;101763.34;;;0.42;98.84
47753;BME280;2038;51.728;6.674;2022-12-18T13:28:49;101770.94;;;0.56;98.93
47753;BME280;2038;51.728;6.674;2022-12-18T13:34:25;101749.22;;;0.42;98.97
47753;BME280;2038;51.728;6.674;2022-12-18T13:37:43;101748.38;;;0.56;99.29
47753;BME280;2038;51.728;6.674;2022-12-18T13:39:57;101740.09;;;0.57;98.15
47753;BME280;2038;51.728;6.674;2022-12-18T13:45:35;101729.38;;;0.58;98.21
47753;BME280;2038;51.728;6.674;2022-12-18T13:48:05;101724.72;;;0.61;98.22
47753;BME280;2038;51.728;6.674;2022-12-18T13:50:42;101728.31;;;0.63;99.27
47753;BME280;2038;51.728;6.674;2022-12-18T13:53:20;101729.38;;;0.65;99.51
47753;BME280;2038;51.728;6.674;2022-12-18T13:55:50;101708.06;;;0.62;98.58
47753;BME280;2038;51.728;6.674;2022-12-18T13:58:17;101704.28;;;0.58;98.79
47753;BME280;2038;51.728;6.674;2022-12-18T14:00:43;101705.38;;;0.60;99.11
47753;BME280;2038;51.728;6.674;2022-12-18T14:03:22;101698.22;;;0.63;99.27
47753;BME280;2038;51.728;6.674;2022-12-18T14:05:55;101701.44;;;0.76;98.96
47753;BME280;2038;51.728;6.674;2022-12-18T14:08:30;101695.91;;;0.72;98.23
47753;BME280;2038;51.728;6.674;2022-12-18T14:11:01;101693.41;;;0.72;99.27
47753;BME280;2038;51.728;6.674;2022-12-18T14:13:33;101694.09;;;0.71;99.19
47753;BME280;2038;51.728;6.674;2022-12-18T14:16:05;101693.19;;;0.63;98.93
47753;BME280;2038;51.728;6.674;2022-12-18T14:18:46;101685.50;;;0.69;99.64
47753;BME280;2038;51.728;6.674;2022-12-18T14:21:24;101683.53;;;0.73;99.26
47753;BME280;2038;51.728;6.674;2022-12-18T14:24:13;101681.56;;;0.71;98.38
47753;BME280;2038;51.728;6.674;2022-12-18T14:26:42;101679.97;;;0.71;99.15
47753;BME280;2038;51.728;6.674;2022-12-18T14:29:25;101672.78;;;0.67;99.39
47753;BME280;2038;51.728;6.674;2022-12-18T14:32:14;101676.00;;;0.66;99.12
47753;BME280;2038;51.728;6.674;2022-12-18T14:34:49;101681.22;;;0.75;98.47
47753;BME280;2038;51.728;6.674;2022-12-18T14:37:22;101678.72;;;0.82;98.33
47753;BME280;2038;51.728;6.674;2022-12-18T14:40:02;101681.56;;;0.85;98.71
47753;BME280;2038;51.728;6.674;2022-12-18T14:42:30;101678.69;;;0.89;98.26
47753;BME280;2038;51.728;6.674;2022-12-18T14:48:06;101675.31;;;1.10;97.18